sensor_id;sensor_type;location;lat;lon;timestamp;pressure;altitude;pressure_sealevel;temperature;humidity
43420;BME280;29017;51.514;-0.178;2022-12-18T00:01:30;101840.13;;;3.71;87.74
43420;BME280;29017;51.514;-0.178;2022-12-18T00:03:58;101834.94;;;3.71;87.66
43420;BME280;29017;51.514;-0.178;2022-12-18T00:06:25;101834.09;;;3.71;87.80
43420;BME280;29017;51.514;-0.178;2022-12-18T00:08:53;101840.13;;;3.71;87.80
43420;BME280;29017;51.514;-0.178;2022-12-18T00:11:20;101834.28;;;3.68;87.98
43420;BME280;29017;51.514;-0.178;2022-12-18T00:13:48;101823.94;;;3.66;88.01
43420;BME280;29017;51.514;-0.178;2022-12-18T00:16:16;101828.22;;;3.67;88.59
43420;BME280;29017;51.514;-0.178;2022-12-18T00:18:47;101828.22;;;3.67;88.93
43420;BME280;29017;51.514;-0.178;2022-12-18T00:21:14;101812.88;;;3.63;88.01
43420;BME280;29017;51.514;-0.178;2022-12-18T00:23:42;101806.81;;;3.62;88.19
43420;BME280;29017;51.514;-0.178;2022-12-18T00:26:10;101806.81;;;3.62;88.51
43420;BME280;29017;51.514;-0.178;2022-12-18T00:28:37;101812.78;;;3.64;88.54
43420;BME280;29017;51.514;-0.178;2022-12-18T00:31:05;101804.28;;;3.61;88.25
43420;BME280;29017;51.514;-0.178;2022-12-18T00:33:33;101796.59;;;3.59;88.26
43420;BME280;29017;51.514;-0.178;2022-12-18T00:36:01;101806.22;;;3.57;88.29
43420;BME280;29017;51.514;-0.178;2022-12-18T00:38:28;101804.72;;;3.53;88.23
43420;BME280;29017;51.514;-0.178;2022-12-18T00:40:55;101800.53;;;3.51;88.34
43420;BME280;29017;51.514;-0.178;2022-12-18T00:43:22;101793.66;;;3.50;88.62
43420;BME280;29017;51.514;-0.178;2022-12-18T00:45:49;101788.47;;;3.50;88.45
43420;BME280;29017;51.514;-0.178;2022-12-18T00:48:16;101798.75;;;3.51;88.88
43420;BME280;29017;51.514;-0.178;2022-12-18T00:50:43;101796.16;;;3.51;88.69
43420;BME280;29017;51.514;-0.178;2022-12-18T00:53:10;101798.69;;;3.53;88.84
43420;BME280;29017;51.514;-0.178;2022-12-18T00:55:37;101804.81;;;3.52;88.46
43420;BME280;29017;51.514;-0.178;2022-12-18T00:58:04;101800.69;;;3.48;88.00
43420;BME280;29017;51.514;-0.178;2022-12-18T01:00:31;101793.81;;;3.47;88.12
43420;BME280;29017;51.514;-0.178;2022-12-18T01:02:58;101798.94;;;3.48;88.27
43420;BME280;29017;51.514;-0.178;2022-12-18T01:05:25;101792.97;;;3.46;87.96
43420;BME280;29017;51.514;-0.178;2022-12-18T01:07:52;101788.59;;;3.47;88.21
43420;BME280;29017;51.514;-0.178;2022-12-18T01:10:19;101790.38;;;3.46;88.34
43420;BME280;29017;51.514;-0.178;2022-12-18T01:12:46;101798.28;;;3.44;88.23
43420;BME280;29017;51.514;-0.178;2022-12-18T01:15:12;101790.53;;;3.43;87.73
43420;BME280;29017;51.514;-0.178;2022-12-18T01:17:40;101780.91;;;3.45;87.67
43420;BME280;29017;51.514;-0.178;2022-12-18T01:20:07;101780.91;;;3.45;87.78
43420;BME280;29017;51.514;-0.178;2022-12-18T01:22:35;101779.13;;;3.45;87.67
43420;BME280;29017;51.514;-0.178;2022-12-18T01:25:03;101773.91;;;3.45;88.12
43420;BME280;29017;51.514;-0.178;2022-12-18T01:27:30;101764.22;;;3.49;88.38
43420;BME280;29017;51.514;-0.178;2022-12-18T01:29:57;101765.78;;;3.52;89.22
43420;BME280;29017;51.514;-0.178;2022-12-18T01:32:24;101765.78;;;3.52;88.90
43420;BME280;29017;51.514;-0.178;2022-12-18T01:34:51;101749.44;;;3.50;88.92
43420;BME280;29017;51.514;-0.178;2022-12-18T01:37:18;101749.53;;;3.48;88.91
43420;BME280;29017;51.514;-0.178;2022-12-18T01:39:45;101747.84;;;3.47;88.57
43420;BME280;29017;51.514;-0.178;2022-12-18T01:42:13;101739.19;;;3.47;88.57
43420;BME280;29017;51.514;-0.178;2022-12-18T01:47:10;101732.41;;;3.44;87.82
43420;BME280;29017;51.514;-0.178;2022-12-18T01:49:40;101733.31;;;3.43;87.90
43420;BME280;29017;51.514;-0.178;2022-12-18T01:52:08;101722.09;;;3.42;88.04
43420;BME280;29017;51.514;-0.178;2022-12-18T01:54:35;101723.84;;;3.42;88.08
43420;BME280;29017;51.514;-0.178;2022-12-18T01:57:02;101731.66;;;3.42;88.07
43420;BME280;29017;51.514;-0.178;2022-12-18T01:59:29;101726.50;;;3.40;88.18
43420;BME280;29017;51.514;-0.178;2022-12-18T02:01:59;101727.63;;;3.36;87.76
43420;BME280;29017;51.514;-0.178;2022-12-18T02:04:27;101737.19;;;3.36;87.88
43420;BME280;29017;51.514;-0.178;2022-12-18T02:09:26;101738.03;;;3.36;87.88
43420;BME280;29017;51.514;-0.178;2022-12-18T02:11:59;101740.72;;;3.35;87.42
43420;BME280;29017;51.514;-0.178;2022-12-18T02:26:58;101758.09;;;3.34;87.87
43420;BME280;29017;51.514;-0.178;2022-12-18T02:29:27;101749.34;;;3.35;88.58
43420;BME280;29017;51.514;-0.178;2022-12-18T02:31:57;101750.28;;;3.34;88.76
43420;BME280;29017;51.514;-0.178;2022-12-18T02:34:26;101759.75;;;3.35;89.04
43420;BME280;29017;51.514;-0.178;2022-12-18T02:36:54;101755.56;;;3.33;88.44
43420;BME280;29017;51.514;-0.178;2022-12-18T02:39:23;101761.84;;;3.29;88.15
43420;BME280;29017;51.514;-0.178;2022-12-18T02:41:51;101771.34;;;3.30;88.01
43420;BME280;29017;51.514;-0.178;2022-12-18T02:44:19;101778.28;;;3.29;87.87
43420;BME280;29017;51.514;-0.178;2022-12-18T02:46:48;101774.84;;;3.29;88.06
43420;BME280;29017;51.514;-0.178;2022-12-18T02:54:21;101789.53;;;3.30;88.05
43420;BME280;29017;51.514;-0.178;2022-12-18T02:56:51;101780.97;;;3.28;87.64
43420;BME280;29017;51.514;-0.178;2022-12-18T02:59:22;101782.81;;;3.26;86.95
43420;BME280;29017;51.514;-0.178;2022-12-18T03:01:54;101775.78;;;3.28;87.41
43420;BME280;29017;51.514;-0.178;2022-12-18T03:04:26;101771.50;;;3.27;87.01
43420;BME280;29017;51.514;-0.178;2022-12-18T03:06:55;101770.66;;;3.26;87.11
43420;BME280;29017;51.514;-0.178;2022-12-18T03:11:54;101754.97;;;3.28;87.49
43420;BME280;29017;51.514;-0.178;2022-12-18T03:14:26;101748.84;;;3.29;87.58
43420;BME280;29017;51.514;-0.178;2022-12-18T03:16:55;101734.00;;;3.31;87.63
43420;BME280;29017;51.514;-0.178;2022-12-18T03:19:24;101732.81;;;3.36;87.61
43420;BME280;29017;51.514;-0.178;2022-12-18T03:21:55;101737.19;;;3.36;87.10
43420;BME280;29017;51.514;-0.178;2022-12-18T03:24:23;101731.97;;;3.36;87.12
43420;BME280;29017;51.514;-0.178;2022-12-18T03:26:53;101730.22;;;3.36;87.67
43420;BME280;29017;51.514;-0.178;2022-12-18T03:29:22;101736.25;;;3.37;86.99
43420;BME280;29017;51.514;-0.178;2022-12-18T03:31:53;101729.28;;;3.37;86.23
43420;BME280;29017;51.514;-0.178;2022-12-18T03:34:23;101724.03;;;3.39;86.81
43420;BME280;29017;51.514;-0.178;2022-12-18T03:36:51;101730.72;;;3.43;87.13
43420;BME280;29017;51.514;-0.178;2022-12-18T03:39:18;101725.53;;;3.43;86.85
43420;BME280;29017;51.514;-0.178;2022-12-18T03:49:15;101722.00;;;3.44;87.07
43420;BME280;29017;51.514;-0.178;2022-12-18T03:54:17;101715.97;;;3.43;86.47
43420;BME280;29017;51.514;-0.178;2022-12-18T03:59:55;101704.06;;;3.39;86.15
43420;BME280;29017;51.514;-0.178;2022-12-18T04:02:22;101707.56;;;3.38;85.85
43420;BME280;29017;51.514;-0.178;2022-12-18T04:04:52;101698.16;;;3.36;85.84
43420;BME280;29017;51.514;-0.178;2022-12-18T04:07:20;101695.75;;;3.33;85.61
43420;BME280;29017;51.514;-0.178;2022-12-18T04:09:48;101700.19;;;3.31;86.04
43420;BME280;29017;51.514;-0.178;2022-12-18T04:12:15;101703.56;;;3.33;86.06
43420;BME280;29017;51.514;-0.178;2022-12-18T04:14:42;101698.44;;;3.31;86.08
43420;BME280;29017;51.514;-0.178;2022-12-18T04:17:09;101707.25;;;3.29;85.51
43420;BME280;29017;51.514;-0.178;2022-12-18T04:19:36;101698.53;;;3.30;85.80
43420;BME280;29017;51.514;-0.178;2022-12-18T04:22:03;101700.38;;;3.28;85.88
43420;BME280;29017;51.514;-0.178;2022-12-18T04:24:30;101696.84;;;3.29;86.11
43420;BME280;29017;51.514;-0.178;2022-12-18T04:26:57;101679.75;;;3.25;86.08
43420;BME280;29017;51.514;-0.178;2022-12-18T04:29:24;101692.75;;;3.25;86.22
43420;BME280;29017;51.514;-0.178;2022-12-18T04:31:51;101688.47;;;3.24;86.01
43420;BME280;29017;51.514;-0.178;2022-12-18T04:34:18;101686.78;;;3.23;86.07
43420;BME280;29017;51.514;-0.178;2022-12-18T04:36:45;101683.34;;;3.22;86.04
43420;BME280;29017;51.514;-0.178;2022-12-18T04:39:12;101673.78;;;3.23;86.29
43420;BME280;29017;51.514;-0.178;2022-12-18T04:41:39;101679.91;;;3.22;86.31
43420;BME280;29017;51.514;-0.178;2022-12-18T04:44:05;101679.91;;;3.22;86.75
43420;BME280;29017;51.514;-0.178;2022-12-18T04:46:32;101679.91;;;3.22;87.42
43420;BME280;29017;51.514;-0.178;2022-12-18T04:48:59;101675.63;;;3.21;87.52
43420;BME280;29017;51.514;-0.178;2022-12-18T04:51:26;101672.09;;;3.22;87.99
43420;BME280;29017;51.514;-0.178;2022-12-18T04:53:53;101669.50;;;3.22;87.81
43420;BME280;29017;51.514;-0.178;2022-12-18T04:56:20;101673.78;;;3.23;88.13
43420;BME280;29017;51.514;-0.178;2022-12-18T04:58:47;101666.91;;;3.22;88.11
43420;BME280;29017;51.514;-0.178;2022-12-18T05:01:14;101651.38;;;3.20;88.31
43420;BME280;29017;51.514;-0.178;2022-12-18T05:03:42;101652.31;;;3.19;88.02
43420;BME280;29017;51.514;-0.178;2022-12-18T05:06:10;101640.25;;;3.18;88.17
43420;BME280;29017;51.514;-0.178;2022-12-18T05:08:36;101631.59;;;3.18;88.41
43420;BME280;29017;51.514;-0.178;2022-12-18T05:11:05;101617.69;;;3.19;88.98
43420;BME280;29017;51.514;-0.178;2022-12-18T05:13:32;101620.28;;;3.19;88.74
43420;BME280;29017;51.514;-0.178;2022-12-18T05:15:59;101620.28;;;3.19;88.72
43420;BME280;29017;51.514;-0.178;2022-12-18T05:18:26;101616.94;;;3.17;88.74
43420;BME280;29017;51.514;-0.178;2022-12-18T05:20:54;101601.41;;;3.15;88.72
43420;BME280;29017;51.514;-0.178;2022-12-18T05:23:21;101598.91;;;3.14;88.81
43420;BME280;29017;51.514;-0.178;2022-12-18T05:25:51;101598.06;;;3.13;88.86
43420;BME280;29017;51.514;-0.178;2022-12-18T05:28:18;101589.34;;;3.14;89.14
43420;BME280;29017;51.514;-0.178;2022-12-18T05:30:47;101589.44;;;3.13;89.11
43420;BME280;29017;51.514;-0.178;2022-12-18T05:33:15;101589.44;;;3.13;89.08
43420;BME280;29017;51.514;-0.178;2022-12-18T05:35:41;101589.69;;;3.08;89.19
43420;BME280;29017;51.514;-0.178;2022-12-18T05:38:08;101590.34;;;3.12;89.53
43420;BME280;29017;51.514;-0.178;2022-12-18T05:40:35;101579.03;;;3.13;89.74
43420;BME280;29017;51.514;-0.178;2022-12-18T05:43:03;101571.22;;;3.13;89.65
43420;BME280;29017;51.514;-0.178;2022-12-18T05:45:30;101578.19;;;3.12;89.22
43420;BME280;29017;51.514;-0.178;2022-12-18T05:47:56;101567.78;;;3.12;89.29
43420;BME280;29017;51.514;-0.178;2022-12-18T05:50:23;101560.91;;;3.11;89.44
43420;BME280;29017;51.514;-0.178;2022-12-18T05:52:50;101577.34;;;3.12;89.45
43420;BME280;29017;51.514;-0.178;2022-12-18T05:55:17;101580.78;;;3.12;89.94
43420;BME280;29017;51.514;-0.178;2022-12-18T05:57:44;101574.69;;;3.13;89.79
43420;BME280;29017;51.514;-0.178;2022-12-18T06:00:12;101556.41;;;3.15;89.78
43420;BME280;29017;51.514;-0.178;2022-12-18T06:02:39;101553.63;;;3.18;90.39
43420;BME280;29017;51.514;-0.178;2022-12-18T06:05:06;101559.47;;;3.21;90.40
43420;BME280;29017;51.514;-0.178;2022-12-18T06:07:33;101561.22;;;3.21;89.73
43420;BME280;29017;51.514;-0.178;2022-12-18T06:10:00;101545.34;;;3.25;90.04
43420;BME280;29017;51.514;-0.178;2022-12-18T06:12:27;101528.94;;;3.25;90.28
43420;BME280;29017;51.514;-0.178;2022-12-18T06:14:54;101527.91;;;3.27;89.94
43420;BME280;29017;51.514;-0.178;2022-12-18T06:17:21;101537.41;;;3.28;90.04
43420;BME280;29017;51.514;-0.178;2022-12-18T06:19:48;101544.94;;;3.33;90.10
43420;BME280;29017;51.514;-0.178;2022-12-18T06:22:14;101535.28;;;3.35;89.95
43420;BME280;29017;51.514;-0.178;2022-12-18T06:24:41;101533.63;;;3.34;89.38
43420;BME280;29017;51.514;-0.178;2022-12-18T06:27:08;101514.50;;;3.35;89.32
43420;BME280;29017;51.514;-0.178;2022-12-18T06:29:35;101502.31;;;3.35;88.99
43420;BME280;29017;51.514;-0.178;2022-12-18T06:32:02;101503.06;;;3.37;89.14
43420;BME280;29017;51.514;-0.178;2022-12-18T06:34:29;101494.97;;;3.42;89.45
43420;BME280;29017;51.514;-0.178;2022-12-18T06:36:56;101491.66;;;3.40;88.90
43420;BME280;29017;51.514;-0.178;2022-12-18T06:39:23;101484.50;;;3.43;89.08
43420;BME280;29017;51.514;-0.178;2022-12-18T06:41:49;101482.47;;;3.49;89.16
43420;BME280;29017;51.514;-0.178;2022-12-18T06:44:16;101482.38;;;3.50;88.80
43420;BME280;29017;51.514;-0.178;2022-12-18T06:46:43;101470.28;;;3.49;88.88
43420;BME280;29017;51.514;-0.178;2022-12-18T06:49:10;101471.97;;;3.50;88.74
43420;BME280;29017;51.514;-0.178;2022-12-18T06:51:37;101474.56;;;3.50;88.36
43420;BME280;29017;51.514;-0.178;2022-12-18T06:54:04;101476.97;;;3.53;88.81
43420;BME280;29017;51.514;-0.178;2022-12-18T06:56:31;101486.47;;;3.54;88.67
43420;BME280;29017;51.514;-0.178;2022-12-18T06:58:58;101491.47;;;3.57;88.64
43420;BME280;29017;51.514;-0.178;2022-12-18T07:01:24;101487.19;;;3.56;88.13
43420;BME280;29017;51.514;-0.178;2022-12-18T07:03:52;101485.34;;;3.58;88.30
43420;BME280;29017;51.514;-0.178;2022-12-18T07:06:21;101478.19;;;3.62;88.22
43420;BME280;29017;51.514;-0.178;2022-12-18T07:08:48;101473.81;;;3.62;88.64
43420;BME280;29017;51.514;-0.178;2022-12-18T07:11:16;101466.22;;;3.59;87.58
43420;BME280;29017;51.514;-0.178;2022-12-18T07:13:43;101459.25;;;3.60;87.73
43420;BME280;29017;51.514;-0.178;2022-12-18T07:16:12;101454.06;;;3.60;87.62
43420;BME280;29017;51.514;-0.178;2022-12-18T07:18:47;101458.13;;;3.64;87.49
43420;BME280;29017;51.514;-0.178;2022-12-18T07:21:15;101460.66;;;3.65;87.54
43420;BME280;29017;51.514;-0.178;2022-12-18T07:23:42;101463.81;;;3.70;87.89
43420;BME280;29017;51.514;-0.178;2022-12-18T07:26:11;101463.13;;;3.67;86.93
43420;BME280;29017;51.514;-0.178;2022-12-18T07:28:38;101458.06;;;3.65;87.10
43420;BME280;29017;51.514;-0.178;2022-12-18T07:31:08;101461.47;;;3.66;86.86
43420;BME280;29017;51.514;-0.178;2022-12-18T07:33:41;101457.84;;;3.68;87.44
43420;BME280;29017;51.514;-0.178;2022-12-18T07:36:08;101455.34;;;3.67;87.04
43420;BME280;29017;51.514;-0.178;2022-12-18T07:38:36;101451.81;;;3.68;86.81
43420;BME280;29017;51.514;-0.178;2022-12-18T07:41:04;101444.84;;;3.68;86.75
43420;BME280;29017;51.514;-0.178;2022-12-18T07:43:33;101447.53;;;3.67;86.19
43420;BME280;29017;51.514;-0.178;2022-12-18T07:46:00;101437.03;;;3.68;86.15
43420;BME280;29017;51.514;-0.178;2022-12-18T07:48:27;101437.88;;;3.69;86.08
43420;BME280;29017;51.514;-0.178;2022-12-18T07:50:58;101434.44;;;3.68;85.91
43420;BME280;29017;51.514;-0.178;2022-12-18T07:53:25;101424.03;;;3.68;85.88
43420;BME280;29017;51.514;-0.178;2022-12-18T07:58:43;101407.22;;;3.74;86.27
43420;BME280;29017;51.514;-0.178;2022-12-18T08:01:13;101413.97;;;3.76;85.89
43420;BME280;29017;51.514;-0.178;2022-12-18T08:03:40;101399.13;;;3.78;86.17
43420;BME280;29017;51.514;-0.178;2022-12-18T08:06:08;101406.72;;;3.81;86.58
43420;BME280;29017;51.514;-0.178;2022-12-18T08:08:35;101413.69;;;3.81;86.19
43420;BME280;29017;51.514;-0.178;2022-12-18T08:11:02;101409.31;;;3.81;85.95
43420;BME280;29017;51.514;-0.178;2022-12-18T08:13:29;101417.88;;;3.83;85.82
43420;BME280;29017;51.514;-0.178;2022-12-18T08:18:25;101419.56;;;3.84;85.34
43420;BME280;29017;51.514;-0.178;2022-12-18T08:20:52;101425.47;;;3.86;85.40
43420;BME280;29017;51.514;-0.178;2022-12-18T08:23:18;101437.66;;;3.86;85.75
43420;BME280;29017;51.514;-0.178;2022-12-18T08:25:45;101435.16;;;3.84;85.50
43420;BME280;29017;51.514;-0.178;2022-12-18T08:28:12;101423.09;;;3.83;85.64
43420;BME280;29017;51.514;-0.178;2022-12-18T08:30:39;101428.22;;;3.85;85.77
43420;BME280;29017;51.514;-0.178;2022-12-18T08:33:07;101424.75;;;3.84;85.32
43420;BME280;29017;51.514;-0.178;2022-12-18T08:35:35;101430.69;;;3.86;85.71
43420;BME280;29017;51.514;-0.178;2022-12-18T08:38:10;101430.69;;;3.86;85.92
43420;BME280;29017;51.514;-0.178;2022-12-18T08:40:37;101440.09;;;3.89;85.94
43420;BME280;29017;51.514;-0.178;2022-12-18T08:43:04;101433.28;;;3.86;85.69
43420;BME280;29017;51.514;-0.178;2022-12-18T08:45:34;101424.56;;;3.87;85.32
43420;BME280;29017;51.514;-0.178;2022-12-18T08:48:01;101414.91;;;3.90;85.36
43420;BME280;29017;51.514;-0.178;2022-12-18T08:50:28;101418.34;;;3.90;85.24
43420;BME280;29017;51.514;-0.178;2022-12-18T08:52:56;101426.88;;;3.92;85.73
43420;BME280;29017;51.514;-0.178;2022-12-18T08:55:23;101428.47;;;3.95;85.60
43420;BME280;29017;51.514;-0.178;2022-12-18T08:57:51;101432.63;;;3.97;85.03
43420;BME280;29017;51.514;-0.178;2022-12-18T09:00:18;101418.59;;;4.00;84.80
43420;BME280;29017;51.514;-0.178;2022-12-18T09:02:45;101419.31;;;4.02;85.39
43420;BME280;29017;51.514;-0.178;2022-12-18T09:05:12;101422.47;;;4.07;85.37
43420;BME280;29017;51.514;-0.178;2022-12-18T09:07:39;101415.50;;;4.07;85.15
43420;BME280;29017;51.514;-0.178;2022-12-18T09:10:06;101414.41;;;4.11;85.22
43420;BME280;29017;51.514;-0.178;2022-12-18T09:12:33;101424.59;;;4.14;85.16
43420;BME280;29017;51.514;-0.178;2022-12-18T09:15:00;101422.63;;;4.18;85.02
43420;BME280;29017;51.514;-0.178;2022-12-18T09:17:27;101416.41;;;4.20;84.89
43420;BME280;29017;51.514;-0.178;2022-12-18T09:19:54;101425.91;;;4.21;84.98
43420;BME280;29017;51.514;-0.178;2022-12-18T09:22:21;101431.84;;;4.23;85.01
43420;BME280;29017;51.514;-0.178;2022-12-18T09:24:48;101412.75;;;4.23;84.46
43420;BME280;29017;51.514;-0.178;2022-12-18T09:27:15;101413.59;;;4.23;84.36
43420;BME280;29017;51.514;-0.178;2022-12-18T09:29:42;101414.44;;;4.24;84.48
43420;BME280;29017;51.514;-0.178;2022-12-18T09:32:09;101411.84;;;4.24;84.30
43420;BME280;29017;51.514;-0.178;2022-12-18T09:34:36;101417.69;;;4.27;84.87
43420;BME280;29017;51.514;-0.178;2022-12-18T09:37:03;101432.38;;;4.28;85.01
43420;BME280;29017;51.514;-0.178;2022-12-18T09:39:30;101442.50;;;4.33;85.21
43420;BME280;29017;51.514;-0.178;2022-12-18T09:41:57;101447.63;;;4.35;84.89
43420;BME280;29017;51.514;-0.178;2022-12-18T09:49:23;101432.44;;;4.41;85.37
43420;BME280;29017;51.514;-0.178;2022-12-18T09:51:52;101425.16;;;4.46;85.50
43420;BME280;29017;51.514;-0.178;2022-12-18T09:56:52;101429.16;;;4.52;84.96
43420;BME280;29017;51.514;-0.178;2022-12-18T10:01:49;101437.59;;;4.55;84.34
43420;BME280;29017;51.514;-0.178;2022-12-18T10:04:16;101442.59;;;4.58;84.45
43420;BME280;29017;51.514;-0.178;2022-12-18T10:09:16;101435.81;;;4.56;84.23
43420;BME280;29017;51.514;-0.178;2022-12-18T10:26:41;101414.91;;;4.70;84.34
43420;BME280;29017;51.514;-0.178;2022-12-18T10:29:10;101418.16;;;4.73;84.76
43420;BME280;29017;51.514;-0.178;2022-12-18T10:31:38;101411.78;;;4.78;84.30
43420;BME280;29017;51.514;-0.178;2022-12-18T10:36:36;101407.84;;;4.85;84.28
43420;BME280;29017;51.514;-0.178;2022-12-18T10:41:33;101397.13;;;4.89;84.18
43420;BME280;29017;51.514;-0.178;2022-12-18T10:46:30;101379.41;;;4.94;84.27
43420;BME280;29017;51.514;-0.178;2022-12-18T10:48:57;101381.81;;;4.97;83.65
43420;BME280;29017;51.514;-0.178;2022-12-18T10:53:57;101358.88;;;5.02;83.41
43420;BME280;29017;51.514;-0.178;2022-12-18T10:56:27;101356.03;;;5.05;83.89
43420;BME280;29017;51.514;-0.178;2022-12-18T10:58:56;101329.88;;;5.07;83.90
43420;BME280;29017;51.514;-0.178;2022-12-18T11:01:23;101342.78;;;5.08;83.50
43420;BME280;29017;51.514;-0.178;2022-12-18T11:06:24;101322.66;;;5.10;83.27
43420;BME280;29017;51.514;-0.178;2022-12-18T11:11:22;101303.47;;;5.11;82.76
43420;BME280;29017;51.514;-0.178;2022-12-18T11:13:53;101304.09;;;5.15;82.92
43420;BME280;29017;51.514;-0.178;2022-12-18T11:16:24;101298.78;;;5.16;82.61
43420;BME280;29017;51.514;-0.178;2022-12-18T11:18:51;101311.81;;;5.16;82.27
43420;BME280;29017;51.514;-0.178;2022-12-18T11:21:18;101305.66;;;5.18;82.71
43420;BME280;29017;51.514;-0.178;2022-12-18T11:23:47;101305.44;;;5.21;83.74
43420;BME280;29017;51.514;-0.178;2022-12-18T11:26:16;101294.06;;;5.22;84.41
43420;BME280;29017;51.514;-0.178;2022-12-18T11:28:45;101280.94;;;5.23;84.98
43420;BME280;29017;51.514;-0.178;2022-12-18T11:33:44;101271.75;;;5.18;85.23
43420;BME280;29017;51.514;-0.178;2022-12-18T11:36:34;101270.00;;;5.18;85.70
43420;BME280;29017;51.514;-0.178;2022-12-18T11:39:08;101260.38;;;5.18;86.51
43420;BME280;29017;51.514;-0.178;2022-12-18T11:44:13;101252.53;;;5.18;87.76
43420;BME280;29017;51.514;-0.178;2022-12-18T11:46:45;101251.75;;;5.18;88.11
43420;BME280;29017;51.514;-0.178;2022-12-18T11:49:18;101257.16;;;5.15;88.41
43420;BME280;29017;51.514;-0.178;2022-12-18T11:51:50;101252.66;;;5.17;88.72
43420;BME280;29017;51.514;-0.178;2022-12-18T11:54:18;101246.53;;;5.18;89.02
43420;BME280;29017;51.514;-0.178;2022-12-18T12:21:39;101183.59;;;5.23;91.16
43420;BME280;29017;51.514;-0.178;2022-12-18T12:39:06;101137.00;;;5.29;92.93
43420;BME280;29017;51.514;-0.178;2022-12-18T12:41:35;101141.09;;;5.33;93.52
43420;BME280;29017;51.514;-0.178;2022-12-18T12:44:07;101138.25;;;5.36;93.32
43420;BME280;29017;51.514;-0.178;2022-12-18T12:46:37;101141.69;;;5.37;93.40
43420;BME280;29017;51.514;-0.178;2022-12-18T12:49:09;101154.50;;;5.40;93.50
43420;BME280;29017;51.514;-0.178;2022-12-18T12:51:40;101135.31;;;5.41;93.88
43420;BME280;29017;51.514;-0.178;2022-12-18T13:06:44;101118.47;;;5.45;94.53
43420;BME280;29017;51.514;-0.178;2022-12-18T13:09:15;101097.84;;;5.42;94.21
43420;BME280;29017;51.514;-0.178;2022-12-18T13:11:43;101100.34;;;5.43;94.35
43420;BME280;29017;51.514;-0.178;2022-12-18T13:16:44;101094.06;;;5.46;94.45
43420;BME280;29017;51.514;-0.178;2022-12-18T13:19:19;101086.97;;;5.48;94.78
43420;BME280;29017;51.514;-0.178;2022-12-18T13:26:48;101069.72;;;5.45;95.00
43420;BME280;29017;51.514;-0.178;2022-12-18T13:34:16;101054.66;;;5.49;95.39
43420;BME280;29017;51.514;-0.178;2022-12-18T13:36:55;101044.97;;;5.51;95.47
43420;BME280;29017;51.514;-0.178;2022-12-18T13:39:24;101040.59;;;5.51;95.56
43420;BME280;29017;51.514;-0.178;2022-12-18T13:47:24;101029.56;;;5.48;95.39
43420;BME280;29017;51.514;-0.178;2022-12-18T13:49:51;101023.25;;;5.50;95.80
43420;BME280;29017;51.514;-0.178;2022-12-18T13:52:20;101017.44;;;5.47;95.63
43420;BME280;29017;51.514;-0.178;2022-12-18T13:54:50;101009.50;;;5.48;95.64
43420;BME280;29017;51.514;-0.178;2022-12-18T13:59:49;100999.56;;;5.53;95.89
43420;BME280;29017;51.514;-0.178;2022-12-18T14:02:17;101000.59;;;5.51;96.07
43420;BME280;29017;51.514;-0.178;2022-12-18T14:04:45;100993.72;;;5.50;95.68
43420;BME280;29017;51.514;-0.178;2022-12-18T14:07:14;100999.78;;;5.50;95.99
43420;BME280;29017;51.514;-0.178;2022-12-18T14:09:43;101000.59;;;5.51;96.43
43420;BME280;29017;51.514;-0.178;2022-12-18T14:14:47;101004.16;;;5.50;96.39
43420;BME280;29017;51.514;-0.178;2022-12-18T14:17:18;100997.16;;;5.50;96.58
43420;BME280;29017;51.514;-0.178;2022-12-18T14:19:48;100991.84;;;5.52;96.79
43420;BME280;29017;51.514;-0.178;2022-12-18T14:22:16;100990.28;;;5.49;96.76
43420;BME280;29017;51.514;-0.178;2022-12-18T14:24:44;100987.56;;;5.51;97.06
43420;BME280;29017;51.514;-0.178;2022-12-18T14:27:13;100992.78;;;5.51;97.04
43420;BME280;29017;51.514;-0.178;2022-12-18T14:29:46;100996.13;;;5.53;97.29
43420;BME280;29017;51.514;-0.178;2022-12-18T14:32:15;100983.91;;;5.53;97.37
43420;BME280;29017;51.514;-0.178;2022-12-18T14:34:46;100979.38;;;5.55;97.54
43420;BME280;29017;51.514;-0.178;2022-12-18T14:37:14;100973.22;;;5.56;97.81
43420;BME280;29017;51.514;-0.178;2022-12-18T14:39:51;100962.78;;;5.56;97.83
43420;BME280;29017;51.514;-0.178;2022-12-18T14:42:19;100957.56;;;5.56;98.09
43420;BME280;29017;51.514;-0.178;2022-12-18T14:44:46;100950.69;;;5.55;97.82
43420;BME280;29017;51.514;-0.178;2022-12-18T14:47:33;100960.19;;;5.56;98.09
43420;BME280;29017;51.514;-0.178;2022-12-18T14:50:00;100960.19;;;5.56;97.99
43420;BME280;29017;51.514;-0.178;2022-12-18T14:52:27;100951.41;;;5.57;98.44
43420;BME280;29017;51.514;-0.178;2022-12-18T14:54:55;100952.25;;;5.58;98.40
43420;BME280;29017;51.514;-0.178;2022-12-18T14:57:23;100957.31;;;5.59;98.36
43420;BME280;29017;51.514;-0.178;2022-12-18T14:59:51;100949.50;;;5.59;98.39
43420;BME280;29017;51.514;-0.178;2022-12-18T15:02:20;100948.44;;;5.62;98.62
43420;BME280;29017;51.514;-0.178;2022-12-18T15:04:58;100949.13;;;5.64;98.91
43420;BME280;29017;51.514;-0.178;2022-12-18T15:07:26;100942.97;;;5.65;98.82
43420;BME280;29017;51.514;-0.178;2022-12-18T15:14:53;100935.75;;;5.69;99.21
43420;BME280;29017;51.514;-0.178;2022-12-18T15:17:21;100927.78;;;5.70;99.37
43420;BME280;29017;51.514;-0.178;2022-12-18T15:19:52;100913.78;;;5.71;99.43
43420;BME280;29017;51.514;-0.178;2022-12-18T15:24:47;100920.31;;;5.77;99.97
43420;BME280;29017;51.514;-0.178;2022-12-18T15:29:59;100903.72;;;5.78;100.00
43420;BME280;29017;51.514;-0.178;2022-12-18T15:32:26;100907.00;;;5.80;100.00
43420;BME280;29017;51.514;-0.178;2022-12-18T15:37:24;100889.03;;;5.88;100.00
43420;BME280;29017;51.514;-0.178;2022-12-18T15:39:51;100880.81;;;5.92;100.00
43420;BME280;29017;51.514;-0.178;2022-12-18T15:42:18;100872.88;;;5.94;100.00
43420;BME280;29017;51.514;-0.178;2022-12-18T15:44:49;100875.13;;;5.98;100.00
43420;BME280;29017;51.514;-0.178;2022-12-18T15:47:16;100863.69;;;5.99;100.00
43420;BME280;29017;51.514;-0.178;2022-12-18T15:49:43;100846.97;;;6.02;100.00
43420;BME280;29017;51.514;-0.178;2022-12-18T15:52:11;100852.06;;;6.04;100.00
43420;BME280;29017;51.514;-0.178;2022-12-18T15:54:39;100847.53;;;6.06;100.00